createdAt,value
2018-12-24T00:00:42.593Z,2.03
2018-12-24T00:03:31.355Z,2.00
2018-12-24T00:06:01.155Z,2.20
2018-12-24T00:08:30.970Z,2.40
2018-12-24T00:11:19.922Z,2.50
2018-12-24T00:14:08.887Z,1.70
2018-12-24T00:16:38.696Z,2.00
2018-12-24T00:19:27.739Z,4.70
2018-12-24T00:21:57.535Z,2.20
2018-12-24T00:24:27.348Z,2.23
2018-12-24T00:26:57.144Z,2.57
2018-12-24T00:29:26.947Z,2.17
2018-12-24T00:31:56.760Z,2.23
2018-12-24T00:34:26.560Z,4.20
2018-12-24T00:36:56.366Z,2.10
2018-12-24T00:39:26.160Z,3.67
2018-12-24T00:42:15.987Z,2.20
2018-12-24T00:44:46.645Z,2.23
2018-12-24T00:47:16.464Z,1.87
2018-12-24T00:49:46.272Z,2.00
2018-12-24T00:52:16.085Z,1.93
2018-12-24T00:54:45.912Z,2.00
2018-12-24T00:57:15.727Z,1.77
2018-12-24T00:59:45.550Z,2.03
2018-12-24T01:02:15.351Z,1.90
2018-12-24T01:04:45.164Z,1.80
2018-12-24T01:07:14.975Z,2.67
2018-12-24T01:09:44.781Z,1.53
2018-12-24T01:12:33.813Z,1.77
2018-12-24T01:15:22.910Z,1.77
2018-12-24T01:17:52.720Z,1.50
2018-12-24T01:20:22.537Z,1.70
2018-12-24T01:22:52.349Z,1.63
2018-12-24T01:25:22.170Z,1.60
2018-12-24T01:27:51.980Z,1.63
2018-12-24T01:30:21.800Z,2.10
2018-12-24T01:32:51.597Z,1.93
2018-12-24T01:35:21.407Z,1.57
2018-12-24T01:37:51.210Z,1.87
2018-12-24T01:40:21.018Z,1.93
2018-12-24T01:45:39.668Z,1.60
2018-12-24T01:48:28.704Z,1.33
2018-12-24T01:51:17.741Z,1.60
2018-12-24T01:53:47.550Z,2.60
2018-12-24T01:56:17.359Z,1.73
2018-12-24T01:58:47.157Z,2.90
2018-12-24T02:01:16.969Z,1.60
2018-12-24T02:03:46.764Z,2.90
2018-12-24T02:06:16.580Z,1.97
2018-12-24T02:08:46.399Z,2.10
2018-12-24T02:11:16.197Z,1.73
2018-12-24T02:19:39.213Z,2.27
2018-12-24T02:22:12.895Z,2.70
2018-12-24T02:24:40.541Z,2.00
2018-12-24T02:27:29.569Z,7.27
2018-12-24T02:30:18.622Z,1.70
2018-12-24T02:32:48.428Z,1.00
2018-12-24T02:35:18.222Z,0.90
2018-12-24T02:37:48.035Z,0.90
2018-12-24T02:40:17.826Z,0.90
2018-12-24T02:42:52.405Z,0.80
2018-12-24T02:45:19.217Z,0.90
2018-12-24T02:47:49.024Z,1.80
2018-12-24T02:50:18.815Z,1.70
2018-12-24T02:52:48.617Z,2.17
2018-12-24T02:55:18.419Z,1.30
2018-12-24T02:57:48.223Z,1.43
2018-12-24T03:00:18.015Z,0.90
2018-12-24T03:02:47.840Z,1.33
2018-12-24T03:05:36.934Z,2.10
2018-12-24T03:08:06.663Z,0.90
2018-12-24T03:10:36.580Z,0.80
2018-12-24T03:13:27.201Z,0.80
2018-12-24T03:15:57.004Z,0.73
2018-12-24T03:18:26.826Z,0.90
2018-12-24T03:20:56.638Z,0.70
2018-12-24T03:23:26.457Z,0.90
2018-12-24T03:25:56.251Z,0.90
2018-12-24T03:28:26.057Z,0.90
2018-12-24T03:31:15.008Z,1.10
2018-12-24T03:33:44.826Z,0.83
2018-12-24T03:36:14.618Z,0.70
2018-12-24T03:41:20.124Z,0.80
2018-12-24T03:43:49.961Z,0.90
2018-12-24T03:46:19.781Z,0.80
2018-12-24T03:48:49.626Z,0.90
2018-12-24T03:51:19.498Z,0.70
2018-12-24T03:53:49.450Z,0.70
2018-12-24T03:56:19.269Z,0.83
2018-12-24T03:58:49.096Z,0.80
2018-12-24T04:01:18.910Z,0.70
2018-12-24T04:03:48.829Z,0.80
2018-12-24T04:06:18.775Z,0.80
2018-12-24T04:08:48.678Z,1.00
2018-12-24T04:11:18.497Z,0.70
2018-12-24T04:13:48.326Z,0.90
2018-12-24T04:16:18.164Z,1.20
2018-12-24T04:18:48.119Z,0.73
2018-12-24T04:21:17.910Z,0.80
2018-12-24T04:23:47.734Z,0.77
2018-12-24T04:26:17.572Z,0.80
2018-12-24T04:28:47.467Z,0.67
2018-12-24T04:31:17.292Z,1.00
2018-12-24T04:33:47.114Z,0.90
2018-12-24T04:36:16.928Z,0.80
2018-12-24T04:38:46.853Z,0.93
2018-12-24T04:41:16.679Z,0.77
2018-12-24T04:43:46.572Z,0.80
2018-12-24T04:46:16.418Z,0.67
2018-12-24T04:48:46.247Z,0.73
2018-12-24T04:51:17.020Z,0.70
2018-12-24T04:53:46.981Z,0.73
2018-12-24T04:56:16.799Z,0.73
2018-12-24T04:58:47.199Z,0.70
2018-12-24T05:01:17.011Z,0.87
2018-12-24T05:03:46.836Z,0.70
2018-12-24T05:06:16.660Z,0.63
2018-12-24T05:08:46.515Z,0.60
2018-12-24T05:11:16.354Z,0.70
2018-12-24T05:13:46.348Z,0.83
2018-12-24T05:16:16.180Z,0.80
2018-12-24T05:18:46.033Z,0.80
2018-12-24T05:21:15.871Z,0.90
2018-12-24T05:23:45.680Z,0.80
2018-12-24T05:26:15.514Z,0.70
2018-12-24T05:28:45.355Z,0.70
2018-12-24T05:31:15.164Z,0.80
2018-12-24T05:33:44.987Z,0.90
2018-12-24T05:36:14.807Z,0.80
2018-12-24T05:38:44.645Z,0.73
2018-12-24T05:41:14.487Z,0.83
2018-12-24T05:43:49.379Z,0.97
2018-12-24T05:46:15.899Z,0.90
2018-12-24T05:48:45.752Z,0.90
2018-12-24T05:51:15.571Z,0.90
2018-12-24T05:53:45.396Z,0.90
2018-12-24T05:56:15.252Z,0.90
2018-12-24T05:58:45.124Z,0.87
2018-12-24T06:01:14.978Z,0.80
2018-12-24T06:03:44.813Z,0.70
2018-12-24T06:06:14.631Z,0.90
2018-12-24T06:08:44.445Z,0.70
2018-12-24T06:11:14.316Z,0.80
2018-12-24T06:13:44.290Z,0.80
2018-12-24T06:16:14.161Z,0.90
2018-12-24T06:18:44.008Z,0.87
2018-12-24T06:21:13.837Z,0.90
2018-12-24T06:23:43.700Z,0.83
2018-12-24T06:26:13.691Z,1.13
2018-12-24T06:28:43.668Z,1.00
2018-12-24T06:31:13.613Z,0.93
2018-12-24T06:33:43.514Z,1.23
2018-12-24T06:36:13.482Z,1.73
2018-12-24T06:38:43.399Z,0.90
2018-12-24T06:41:13.260Z,0.90
2018-12-24T06:43:43.407Z,1.00
2018-12-24T06:46:13.318Z,0.90
2018-12-24T06:48:43.194Z,0.80
2018-12-24T06:51:13.417Z,0.80
2018-12-24T06:53:43.386Z,0.80
2018-12-24T06:56:13.210Z,0.60
2018-12-24T06:58:43.038Z,1.00
2018-12-24T07:01:12.910Z,0.90
2018-12-24T07:03:42.784Z,0.80
2018-12-24T07:06:12.669Z,1.00
2018-12-24T07:08:42.590Z,0.90
2018-12-24T07:11:12.491Z,1.00
2018-12-24T07:13:42.328Z,0.93
2018-12-24T07:16:12.156Z,0.90
2018-12-24T07:18:42.184Z,1.00
2018-12-24T07:21:12.101Z,0.97
2018-12-24T07:23:42.067Z,0.80
2018-12-24T07:26:11.889Z,1.03
2018-12-24T07:28:41.733Z,0.90
2018-12-24T07:31:11.587Z,1.70
2018-12-24T07:33:41.444Z,1.30
2018-12-24T07:36:11.274Z,1.17
2018-12-24T07:38:41.291Z,0.90
2018-12-24T07:41:11.135Z,1.10
2018-12-24T07:43:41.021Z,1.87
2018-12-24T07:46:11.606Z,2.17
2018-12-24T07:48:41.446Z,2.17
2018-12-24T07:51:11.309Z,1.23
2018-12-24T07:53:41.230Z,1.33
2018-12-24T07:56:12.258Z,1.10
2018-12-24T07:58:42.228Z,1.40
2018-12-24T08:01:12.101Z,1.50
2018-12-24T08:03:42.094Z,1.40
2018-12-24T08:06:12.281Z,2.00
2018-12-24T08:08:42.607Z,1.27
2018-12-24T08:11:13.373Z,1.30
2018-12-24T08:13:43.413Z,1.50
2018-12-24T08:16:13.224Z,1.50
2018-12-24T08:18:43.038Z,1.80
2018-12-24T08:21:13.112Z,1.40
2018-12-24T08:23:43.200Z,1.50
2018-12-24T08:26:13.086Z,1.60
2018-12-24T08:28:42.967Z,1.53
2018-12-24T08:31:12.897Z,1.57
2018-12-24T08:33:42.876Z,1.30
2018-12-24T08:36:12.794Z,1.20
2018-12-24T08:39:15.228Z,1.27
2018-12-24T08:41:45.280Z,1.40
2018-12-24T08:44:15.219Z,1.20
2018-12-24T08:46:45.219Z,1.30
2018-12-24T08:49:15.013Z,1.60
2018-12-24T08:51:44.899Z,1.30
2018-12-24T08:54:15.204Z,1.37
2018-12-24T08:56:45.219Z,1.53
2018-12-24T08:59:15.316Z,1.77
2018-12-24T09:01:45.138Z,1.20
2018-12-24T09:04:14.980Z,1.50
2018-12-24T09:06:44.882Z,1.73
2018-12-24T09:09:14.754Z,1.50
2018-12-24T09:11:44.569Z,1.20
2018-12-24T09:14:14.562Z,1.40
2018-12-24T09:16:44.364Z,1.17
2018-12-24T09:19:14.242Z,2.63
2018-12-24T09:21:44.064Z,1.40
2018-12-24T09:24:13.926Z,1.63
2018-12-24T09:26:43.906Z,1.67
2018-12-24T09:29:13.774Z,1.63
2018-12-24T09:31:43.598Z,1.30
2018-12-24T09:34:13.458Z,1.50
2018-12-24T09:36:43.350Z,1.57
2018-12-24T09:40:11.203Z,2.30
2018-12-24T09:42:40.642Z,1.30
2018-12-24T09:45:10.114Z,1.60
2018-12-24T09:47:39.563Z,1.70
2018-12-24T09:50:08.989Z,2.37
2018-12-24T09:52:38.463Z,1.77
2018-12-24T09:55:07.928Z,1.60
2018-12-24T09:57:37.321Z,2.07
2018-12-24T10:00:08.383Z,1.63
2018-12-24T10:02:42.683Z,1.67
2018-12-24T10:05:13.628Z,1.50
2018-12-24T10:08:02.341Z,1.97
2018-12-24T10:10:31.955Z,1.87
2018-12-24T10:13:20.556Z,1.13
2018-12-24T10:15:49.945Z,2.00
2018-12-24T10:18:19.425Z,1.70
2018-12-24T10:20:48.840Z,2.50
2018-12-24T10:23:37.548Z,3.23
2018-12-24T10:26:26.289Z,1.70
2018-12-24T10:28:55.668Z,1.87
2018-12-24T10:31:25.069Z,2.47
2018-12-24T10:37:02.272Z,1.33
2018-12-24T10:39:31.719Z,4.00
2018-12-24T10:42:01.202Z,1.57
2018-12-24T10:44:30.589Z,1.60
2018-12-24T10:46:59.976Z,1.53
2018-12-24T10:49:29.359Z,1.80
2018-12-24T10:51:58.747Z,1.73
2018-12-24T10:54:47.508Z,1.70
2018-12-24T10:57:36.135Z,1.80
2018-12-24T11:00:07.044Z,1.77
2018-12-24T11:06:10.081Z,2.37
2018-12-24T11:08:39.513Z,1.40
2018-12-24T11:11:09.061Z,1.70
2018-12-24T11:13:39.607Z,1.60
2018-12-24T11:16:09.564Z,2.33
2018-12-24T11:18:38.957Z,1.87
2018-12-24T11:21:08.421Z,1.83
2018-12-24T11:26:33.493Z,1.70
2018-12-24T11:29:22.144Z,2.03
2018-12-24T11:31:51.572Z,2.63
2018-12-24T11:34:20.950Z,2.10
2018-12-24T11:36:50.356Z,2.00
2018-12-24T11:39:19.926Z,2.80
2018-12-24T11:41:49.355Z,1.70
2018-12-24T11:44:18.742Z,2.10
2018-12-24T11:46:48.133Z,1.53
2018-12-24T11:49:17.522Z,1.50
2018-12-24T11:51:46.901Z,1.70
2018-12-24T11:54:35.348Z,2.17
2018-12-24T11:57:04.726Z,1.50
2018-12-24T11:59:34.108Z,1.77
2018-12-24T12:02:09.915Z,1.70
2018-12-24T12:04:34.602Z,1.20
2018-12-24T12:07:04.202Z,1.30
2018-12-24T12:09:33.609Z,1.40
2018-12-24T12:12:22.322Z,1.37
2018-12-24T12:14:51.720Z,3.10
2018-12-24T12:17:41.985Z,1.40
2018-12-24T12:20:11.376Z,1.63
2018-12-24T12:22:40.774Z,1.33
2018-12-24T12:25:29.492Z,1.60
2018-12-24T12:27:58.879Z,1.40
2018-12-24T12:30:28.267Z,1.90
2018-12-24T12:32:57.697Z,1.80
2018-12-24T12:35:27.130Z,3.63
2018-12-24T12:37:56.510Z,4.07
2018-12-24T12:40:25.919Z,1.93
2018-12-24T12:42:55.304Z,1.87
2018-12-24T12:45:25.056Z,2.37
2018-12-24T12:47:54.442Z,2.10
2018-12-24T12:50:23.847Z,1.77
2018-12-24T12:52:53.255Z,3.67
2018-12-24T12:55:22.643Z,3.10
2018-12-24T13:00:40.543Z,3.00
2018-12-24T13:03:09.930Z,1.50
2018-12-24T13:05:39.320Z,1.30
2018-12-24T13:08:08.709Z,1.40
2018-12-24T13:10:38.111Z,1.70
2018-12-24T13:13:07.500Z,2.00
2018-12-24T13:15:37.548Z,1.97
2018-12-24T13:18:08.121Z,2.20
2018-12-24T13:20:37.512Z,1.90
2018-12-24T13:23:06.891Z,2.00
2018-12-24T13:25:56.915Z,2.27
2018-12-24T13:28:26.284Z,1.73
2018-12-24T13:31:40.551Z,2.77
2018-12-24T13:34:10.195Z,2.00
2018-12-24T13:36:39.618Z,2.03
2018-12-24T13:39:09.026Z,1.97
2018-12-24T13:41:38.474Z,2.17
2018-12-24T13:47:40.384Z,2.47
2018-12-24T13:50:09.774Z,2.50
2018-12-24T13:52:39.166Z,2.40
2018-12-24T13:55:08.646Z,2.03
2018-12-24T14:00:47.172Z,3.53
2018-12-24T14:03:16.827Z,3.23
2018-12-24T14:05:46.164Z,2.47
2018-12-24T14:08:15.552Z,3.20
2018-12-24T14:10:45.022Z,2.83
2018-12-24T14:13:14.397Z,2.83
2018-12-24T14:15:43.792Z,2.00
2018-12-24T14:18:13.173Z,2.37
2018-12-24T14:20:42.559Z,2.00
2018-12-24T14:23:12.106Z,2.03
2018-12-24T14:25:41.538Z,2.30
2018-12-24T14:28:10.926Z,2.50
2018-12-24T14:30:40.347Z,2.30
2018-12-24T14:33:09.725Z,2.30
2018-12-24T14:35:39.113Z,2.70
2018-12-24T14:38:08.479Z,3.97
2018-12-24T14:40:37.868Z,3.53
2018-12-24T14:46:15.004Z,2.50
2018-12-24T14:48:44.388Z,2.27
2018-12-24T14:51:13.780Z,2.40
2018-12-24T14:53:43.177Z,2.40
2018-12-24T14:56:12.563Z,2.50
2018-12-24T14:58:41.966Z,2.23
2018-12-24T15:01:11.362Z,2.00
2018-12-24T15:03:40.787Z,2.90
2018-12-24T15:06:10.196Z,2.40
2018-12-24T15:08:39.581Z,2.30
2018-12-24T15:11:08.975Z,7.40
2018-12-24T15:13:38.369Z,3.53
2018-12-24T15:16:07.754Z,2.83
2018-12-24T15:18:37.161Z,2.90
2018-12-24T15:21:06.552Z,3.10
2018-12-24T15:23:35.928Z,2.60
2018-12-24T15:26:05.419Z,2.50
2018-12-24T15:28:34.806Z,2.67
2018-12-24T15:31:23.523Z,2.87
2018-12-24T15:33:52.956Z,4.43
2018-12-24T15:36:22.342Z,3.67
2018-12-24T15:38:51.713Z,4.17
2018-12-24T15:41:21.115Z,3.33
2018-12-24T15:43:50.499Z,3.17
2018-12-24T15:46:19.893Z,3.33
2018-12-24T15:48:49.286Z,3.03
2018-12-24T15:51:18.686Z,3.10
2018-12-24T15:53:48.072Z,3.03
2018-12-24T15:56:17.459Z,2.83
2018-12-24T15:58:46.831Z,3.20
2018-12-24T16:01:16.232Z,3.40
2018-12-24T16:03:45.626Z,2.90
2018-12-24T16:06:35.968Z,2.90
2018-12-24T16:09:07.208Z,3.07
2018-12-24T16:11:36.606Z,3.10
2018-12-24T16:14:05.945Z,4.83
2018-12-24T16:16:35.334Z,3.43
2018-12-24T16:19:23.727Z,4.93
2018-12-24T16:21:53.138Z,3.90
2018-12-24T16:24:22.585Z,10.20
2018-12-24T16:26:52.142Z,4.97
2018-12-24T16:29:21.642Z,4.43
2018-12-24T16:31:51.069Z,4.37
2018-12-24T16:34:20.508Z,4.07
2018-12-24T16:36:49.926Z,3.80
2018-12-24T16:39:19.370Z,3.77
2018-12-24T16:41:48.811Z,4.70
2018-12-24T16:44:18.241Z,3.90
2018-12-24T16:46:47.674Z,3.77
2018-12-24T16:49:17.108Z,3.07
2018-12-24T16:51:46.524Z,3.33
2018-12-24T16:54:16.023Z,3.47
2018-12-24T16:56:45.457Z,3.20
2018-12-24T16:59:14.896Z,3.70
2018-12-24T17:01:44.414Z,4.10
2018-12-24T17:04:33.087Z,4.23
2018-12-24T17:07:02.656Z,3.57
2018-12-24T17:12:59.167Z,4.13
2018-12-24T17:15:28.590Z,5.93
2018-12-24T17:18:17.384Z,4.13
2018-12-24T17:20:46.871Z,2.57
2018-12-24T17:23:16.365Z,3.00
2018-12-24T17:26:05.077Z,2.60
2018-12-24T17:28:34.481Z,3.07
2018-12-24T17:31:03.922Z,3.00
2018-12-24T17:33:33.336Z,2.50
2018-12-24T17:36:02.910Z,2.60
2018-12-24T17:38:32.363Z,3.37
2018-12-24T17:41:01.782Z,3.40
2018-12-24T17:43:31.230Z,3.10
2018-12-24T17:49:08.786Z,4.17
2018-12-24T17:51:38.360Z,2.47
2018-12-24T17:56:42.660Z,3.60
2018-12-24T17:59:12.089Z,2.33
2018-12-24T18:04:31.623Z,3.80
2018-12-24T18:07:01.037Z,3.20
2018-12-24T18:09:30.487Z,3.40
2018-12-24T18:11:59.933Z,4.03
2018-12-24T18:14:29.378Z,4.73
2018-12-24T18:16:58.816Z,4.00
2018-12-24T18:19:47.546Z,3.30
2018-12-24T18:25:10.980Z,3.10
2018-12-24T18:27:40.422Z,2.77
2018-12-24T18:30:30.308Z,3.47
2018-12-24T18:32:59.726Z,2.80
2018-12-24T18:35:29.152Z,3.40
2018-12-24T18:37:58.614Z,2.87
2018-12-24T18:40:28.081Z,4.50
2018-12-24T18:43:16.919Z,5.00
2018-12-24T18:46:05.449Z,4.50
2018-12-24T18:51:25.006Z,4.13
2018-12-24T18:53:54.468Z,5.70
2018-12-24T18:56:43.232Z,7.23
2018-12-24T18:59:12.690Z,4.37
2018-12-24T19:01:42.260Z,3.57
2018-12-24T19:04:31.756Z,4.70
2018-12-24T19:07:01.276Z,4.43
2018-12-24T19:09:30.682Z,4.80
2018-12-24T19:12:19.351Z,4.97
2018-12-24T19:14:48.778Z,5.53
2018-12-24T19:17:18.246Z,5.43
2018-12-24T19:22:43.225Z,5.40
2018-12-24T19:25:12.649Z,5.33
2018-12-24T19:27:42.379Z,4.87
2018-12-24T19:30:11.792Z,5.10
2018-12-24T19:36:03.832Z,5.10
2018-12-24T19:38:33.257Z,3.60
2018-12-24T19:41:22.013Z,5.07
2018-12-24T19:43:51.428Z,4.50
2018-12-24T19:46:40.187Z,5.03
2018-12-24T19:49:09.641Z,6.20
2018-12-24T19:51:58.415Z,4.60
2018-12-24T19:54:27.859Z,5.17
2018-12-24T19:56:57.342Z,5.00
2018-12-24T19:59:26.752Z,6.23
2018-12-24T20:01:56.190Z,6.80
2018-12-24T20:04:25.949Z,5.33
2018-12-24T20:06:55.366Z,6.90
2018-12-24T20:09:44.201Z,7.23
2018-12-24T20:12:13.670Z,7.03
2018-12-24T20:14:43.108Z,7.03
2018-12-24T20:17:58.181Z,7.30
2018-12-24T20:20:23.435Z,6.77
2018-12-24T20:22:52.895Z,7.00
2018-12-24T20:25:22.330Z,6.13
2018-12-24T20:28:11.106Z,8.30
2018-12-24T20:30:59.876Z,7.63
2018-12-24T20:33:29.299Z,6.67
2018-12-24T20:36:18.130Z,6.63
2018-12-24T20:38:47.562Z,5.93
2018-12-24T20:41:16.992Z,7.90
2018-12-24T20:43:46.389Z,6.30
2018-12-24T20:46:15.815Z,6.60
2018-12-24T20:48:45.242Z,8.30
2018-12-24T20:51:33.979Z,6.37
2018-12-24T20:54:03.374Z,6.03
2018-12-24T20:56:32.821Z,7.27
2018-12-24T20:59:02.310Z,7.27
2018-12-24T21:01:31.727Z,6.40
2018-12-24T21:04:01.143Z,6.13
2018-12-24T21:06:30.595Z,6.00
2018-12-24T21:11:48.405Z,5.97
2018-12-24T21:14:17.769Z,7.40
2018-12-24T21:16:47.223Z,7.13
2018-12-24T21:19:16.596Z,8.00
2018-12-24T21:21:45.935Z,5.83
2018-12-24T21:27:22.834Z,6.20
2018-12-24T21:30:11.583Z,5.70
2018-12-24T21:35:57.304Z,5.77
2018-12-24T21:38:26.729Z,6.67
2018-12-24T21:43:50.663Z,6.77
2018-12-24T21:46:20.160Z,6.77
2018-12-24T21:48:49.596Z,5.80
2018-12-24T21:54:31.843Z,7.80
2018-12-24T21:57:01.299Z,7.47
2018-12-24T21:59:49.795Z,7.50
2018-12-24T22:02:19.212Z,6.53
2018-12-24T22:04:48.671Z,8.03
2018-12-24T22:07:37.215Z,7.83
2018-12-24T22:10:06.590Z,9.70
2018-12-24T22:12:35.916Z,9.50
2018-12-24T22:15:05.436Z,10.00
2018-12-24T22:17:34.785Z,9.70
2018-12-24T22:20:04.202Z,8.33
2018-12-24T22:22:33.544Z,8.10
2018-12-24T22:25:02.888Z,8.20
2018-12-24T22:27:32.222Z,8.97
2018-12-24T22:30:01.550Z,9.93
2018-12-24T22:32:30.891Z,10.00
2018-12-24T22:35:00.290Z,10.87
2018-12-24T22:37:29.573Z,11.20
2018-12-24T22:39:58.913Z,10.53
2018-12-24T22:42:28.255Z,10.07
2018-12-24T22:44:57.608Z,10.17
2018-12-24T22:47:26.936Z,11.90
2018-12-24T22:49:56.273Z,10.73
2018-12-24T22:52:25.605Z,10.67
2018-12-24T22:54:54.950Z,10.37
2018-12-24T22:57:24.381Z,11.47
2018-12-24T22:59:53.708Z,10.40
2018-12-24T23:02:23.046Z,10.60
2018-12-24T23:04:52.457Z,10.83
2018-12-24T23:07:36.413Z,10.57
2018-12-24T23:09:52.919Z,11.17
2018-12-24T23:12:22.302Z,9.90
2018-12-24T23:14:51.687Z,9.20
2018-12-24T23:20:04.356Z,9.40
2018-12-24T23:22:33.733Z,8.70
2018-12-24T23:25:03.118Z,8.77
2018-12-24T23:27:51.813Z,6.93
2018-12-24T23:30:21.207Z,6.37
2018-12-24T23:32:50.601Z,6.00
2018-12-24T23:35:19.981Z,6.00
2018-12-24T23:40:57.120Z,5.50
2018-12-24T23:43:26.498Z,6.60
2018-12-24T23:45:55.891Z,5.70
2018-12-24T23:48:25.268Z,5.27
2018-12-24T23:50:54.665Z,5.37
2018-12-24T23:53:24.049Z,7.53
2018-12-24T23:55:53.447Z,5.13
2018-12-24T23:58:22.828Z,6.10
